Private Wetterstation Wechselburg
Wetterdaten: Samstag, 19.12.2020
Datum Zeit Temp. +2m Bodentemp. Temp.+5cm Temp. Wind Windchill X Diff Temp. Feuchte +2m Feuchte +5cm Luftdruck Regen Wind Richtung Richtung Sonnenschein Taupunkt Windchill Windben
19.12.2020 00:00 -1,3 C 6,2 C -2,1 C -1,6 C -2,1 C 0,0 C 88 % 93 % 1025,3 hPa 0,0 l/m 0,0 km/h (0 Bft) W-SW 247 0 min -3,0 C -2,1 C 0,0 km/h (0 Bft)
19.12.2020 00:05 -1,3 C 6,1 C -2,1 C -1,6 C -2,2 C 0,0 C 88 % 93 % 1025,3 hPa 0,0 l/m 0,0 km/h (0 Bft) W-SW 247 0 min -3,0 C -2,2 C 0,0 km/h (0 Bft)
19.12.2020 00:11 -1,3 C 6,1 C -2,1 C -1,6 C -2,3 C 0,0 C 88 % 93 % 1025,1 hPa 0,0 l/m 0,0 km/h (0 Bft) N 0 0 min -3,0 C -2,3 C 0,0 km/h (0 Bft)
19.12.2020 00:26 -1,6 C 6,1 C -2,3 C -1,8 C -2,3 C 0,0 C 88 % 93 % 1025,1 hPa 0,0 l/m 0,0 km/h (0 Bft) W-SW 247 0 min -3,3 C -2,3 C 0,0 km/h (0 Bft)
19.12.2020 00:27 -1,6 C 6,1 C -2,3 C -1,8 C -2,3 C 0,0 C 88 % 93 % 1025,1 hPa 0,0 l/m 0,0 km/h (0 Bft) W-SW 247 0 min -3,3 C -2,3 C 0,0 km/h (0 Bft)
19.12.2020 00:39 -1,6 C 6,1 C -2,1 C -1,7 C -2,0 C 0,0 C 88 % 93 % 1025,0 hPa 0,0 l/m 0,0 km/h (0 Bft) W-SW 247 0 min -3,3 C -2,0 C 0,0 km/h (0 Bft)
19.12.2020 00:40 -1,6 C 6,1 C -2,1 C -1,7 C -2,0 C 0,0 C 88 % 93 % 1025,0 hPa 0,0 l/m 0,0 km/h (0 Bft) W-SW 247 0 min -3,3 C -2,0 C 0,0 km/h (0 Bft)
19.12.2020 00:45 -1,5 C 6,1 C -2,2 C -1,7 C -2,1 C 0,0 C 88 % 93 % 1025,0 hPa 0,0 l/m 0,0 km/h (0 Bft) W-SW 247 0 min -3,2 C -2,1 C 0,0 km/h (0 Bft)
19.12.2020 00:50 -1,5 C 6,1 C -2,2 C -1,7 C -2,2 C 0,0 C 88 % 93 % 1025,0 hPa 0,0 l/m 0,0 km/h (0 Bft) W-SW 247 0 min -3,2 C -2,2 C 0,0 km/h (0 Bft)
19.12.2020 00:55 -1,7 C 6,1 C -2,2 C -1,8 C -2,1 C 0,0 C 88 % 93 % 1025,0 hPa 0,0 l/m 0,0 km/h (0 Bft) W-SW 247 0 min -3,4 C -2,1 C 0,0 km/h (0 Bft)
19.12.2020 01:00 -1,7 C 6,0 C -2,3 C -1,8 C -2,0 C 0,0 C 88 % 93 % 1025,0 hPa 0,0 l/m 0,0 km/h (0 Bft) W-SW 247 0 min -3,4 C -2,0 C 0,0 km/h (0 Bft)
19.12.2020 01:05 -1,7 C 6,0 C -2,1 C -1,7 C -1,7 C 0,0 C 88 % 93 % 1025,0 hPa 0,0 l/m 0,0 km/h (0 Bft) W-SW 247 0 min -3,4 C -1,7 C 0,0 km/h (0 Bft)
19.12.2020 01:10 -1,7 C 6,0 C -2,2 C -1,7 C -1,7 C 0,0 C 88 % 93 % 1025,0 hPa 0,0 l/m 0,0 km/h (0 Bft) W-SW 247 0 min -3,4 C -1,7 C 0,0 km/h (0 Bft)
19.12.2020 01:15 -1,7 C 6,0 C -2,3 C -1,7 C -1,7 C 0,0 C 88 % 93 % 1025,0 hPa 0,0 l/m 0,0 km/h (0 Bft) W-SW 247 0 min -3,4 C -1,7 C 0,0 km/h (0 Bft)
19.12.2020 01:20 -1,7 C 6,0 C -2,3 C -1,7 C -1,7 C 0,0 C 88 % 93 % 1025,0 hPa 0,0 l/m 0,0 km/h (0 Bft) W-SW 247 0 min -3,4 C -1,7 C 0,0 km/h (0 Bft)
19.12.2020 01:25 -1,7 C 6,0 C -2,3 C -1,7 C -1,8 C 0,0 C 88 % 93 % 1025,0 hPa 0,0 l/m 0,0 km/h (0 Bft) W-SW 247 0 min -3,4 C -1,8 C 0,0 km/h (0 Bft)
19.12.2020 01:30 -1,7 C 6,0 C -2,3 C -1,8 C -1,9 C 0,0 C 88 % 93 % 1024,2 hPa 0,0 l/m 0,0 km/h (0 Bft) W-SW 247 0 min -3,4 C -1,9 C 0,0 km/h (0 Bft)
19.12.2020 01:35 -1,7 C 6,0 C -2,4 C -1,7 C -1,8 C 0,0 C 88 % 93 % 1024,2 hPa 0,0 l/m 0,0 km/h (0 Bft) W-SW 247 0 min -3,4 C -1,8 C 0,0 km/h (0 Bft)
19.12.2020 01:40 -1,7 C 6,0 C -2,3 C -1,8 C -1,9 C 0,0 C 88 % 93 % 1024,2 hPa 0,0 l/m 0,0 km/h (0 Bft) W-SW 247 0 min -3,4 C -1,9 C 0,0 km/h (0 Bft)
19.12.2020 01:45 -1,6 C 6,0 C -2,1 C -1,7 C -1,8 C 0,0 C 88 % 93 % 1024,2 hPa 0,0 l/m 0,0 km/h (0 Bft) W-SW 247 0 min -3,3 C -1,8 C 0,0 km/h (0 Bft)
19.12.2020 01:50 -1,6 C 6,0 C -2,1 C -1,6 C -1,7 C 0,0 C 88 % 93 % 1024,6 hPa 0,0 l/m 0,0 km/h (0 Bft) W-SW 247 0 min -3,3 C -1,7 C 0,0 km/h (0 Bft)
19.12.2020 01:55 -1,5 C 5,9 C -2,2 C -1,6 C -1,8 C 0,0 C 88 % 93 % 1024,6 hPa 0,0 l/m 0,0 km/h (0 Bft) W-SW 247 0 min -3,2 C -1,8 C 0,0 km/h (0 Bft)
19.12.2020 02:00 -1,5 C 5,9 C -2,1 C -1,6 C -1,7 C 0,0 C 88 % 93 % 1024,6 hPa 0,0 l/m 0,0 km/h (0 Bft) W-SW 247 0 min -3,2 C -1,7 C 0,0 km/h (0 Bft)
19.12.2020 02:05 -1,5 C 5,9 C -2,1 C -1,5 C -1,6 C 0,0 C 88 % 93 % 1024,6 hPa 0,0 l/m 0,0 km/h (0 Bft) W-SW 247 0 min -3,2 C -1,6 C 0,0 km/h (0 Bft)
19.12.2020 02:11 -1,7 C 5,9 C -2,2 C -1,1 C -1,1 C 0,6 C 88 % 93 % 1024,6 hPa 0,0 l/m 0,0 km/h (0 Bft) N 0 0 min -3,4 C -1,1 C 0,0 km/h (0 Bft)
19.12.2020 02:27 -1,7 C 5,9 C -2,3 C -1,5 C -1,5 C 0,2 C 88 % 93 % 1024,6 hPa 0,0 l/m 0,0 km/h (0 Bft) W-SW 247 0 min -3,4 C -1,5 C 0,0 km/h (0 Bft)
19.12.2020 02:28 -1,7 C 5,9 C -2,4 C -1,7 C -1,7 C 0,0 C 88 % 93 % 1024,1 hPa 0,0 l/m 0,0 km/h (0 Bft) W-SW 247 0 min -3,4 C -1,7 C 0,0 km/h (0 Bft)
19.12.2020 02:40 -1,7 C 5,9 C -2,4 C -1,4 C -1,4 C 0,3 C 88 % 93 % 1024,1 hPa 0,0 l/m 0,0 km/h (0 Bft) W-SW 247 0 min -3,4 C -1,4 C 0,0 km/h (0 Bft)
19.12.2020 02:45 -1,7 C 5,9 C -2,3 C -1,5 C -1,5 C 0,2 C 88 % 93 % 1024,1 hPa 0,0 l/m 0,0 km/h (0 Bft) W-SW 247 0 min -3,4 C -1,5 C 0,0 km/h (0 Bft)
19.12.2020 02:50 -1,7 C 5,9 C -2,3 C -1,6 C -1,6 C 0,1 C 88 % 93 % 1024,1 hPa 0,0 l/m 0,0 km/h (0 Bft) W-SW 247 0 min -3,4 C -1,6 C 0,0 km/h (0 Bft)
19.12.2020 02:55 -1,7 C 5,8 C -2,4 C -1,7 C -1,7 C 0,0 C 88 % 93 % 1024,1 hPa 0,0 l/m 0,0 km/h (0 Bft) W-SW 247 0 min -3,4 C -1,7 C 0,0 km/h (0 Bft)
19.12.2020 03:00 -1,7 C 5,8 C -2,3 C -1,6 C -1,6 C 0,1 C 88 % 93 % 1024,1 hPa 0,0 l/m 0,0 km/h (0 Bft) W-SW 247 0 min -3,4 C -1,6 C 0,0 km/h (0 Bft)
19.12.2020 03:05 -1,7 C 5,8 C -2,3 C -1,5 C -1,5 C 0,2 C 88 % 93 % 1024,1 hPa 0,0 l/m 0,0 km/h (0 Bft) W-SW 247 0 min -3,4 C -1,5 C 0,0 km/h (0 Bft)
19.12.2020 03:10 -1,8 C 5,8 C -2,3 C -1,5 C -1,5 C 0,3 C 88 % 93 % 1023,9 hPa 0,0 l/m 0,0 km/h (0 Bft) W-SW 247 0 min -3,5 C -1,5 C 0,0 km/h (0 Bft)
19.12.2020 03:15 -1,7 C 5,8 C -2,4 C -1,6 C -1,6 C 0,1 C 88 % 93 % 1023,9 hPa 0,0 l/m 0,0 km/h (0 Bft) W-SW 247 0 min -3,4 C -1,6 C 0,0 km/h (0 Bft)
19.12.2020 03:20 -1,7 C 5,8 C -2,3 C -1,7 C -1,8 C 0,0 C 88 % 93 % 1023,9 hPa 0,0 l/m 0,0 km/h (0 Bft) W-SW 247 0 min -3,4 C -1,8 C 0,0 km/h (0 Bft)
19.12.2020 03:25 -1,9 C 5,8 C -2,3 C -1,9 C -1,9 C 0,0 C 88 % 93 % 1023,9 hPa 0,0 l/m 0,0 km/h (0 Bft) W-SW 247 0 min -3,6 C -1,9 C 0,0 km/h (0 Bft)
19.12.2020 03:30 -1,9 C 5,8 C -2,3 C -1,9 C -1,9 C 0,0 C 88 % 93 % 1023,8 hPa 0,0 l/m 0,0 km/h (0 Bft) W-SW 247 0 min -3,6 C -1,9 C 0,0 km/h (0 Bft)
19.12.2020 03:35 -2,0 C 5,8 C -2,3 C -1,9 C -1,9 C 0,1 C 88 % 93 % 1023,8 hPa 0,0 l/m 0,2 km/h (0 Bft) W-SW 247 0 min -3,7 C -1,9 C 2,3 km/h (1 Bft)
19.12.2020 03:40 -2,0 C 5,8 C -2,4 C -1,9 C -1,9 C 0,1 C 88 % 93 % 1023,8 hPa 0,0 l/m 0,2 km/h (0 Bft) W-SW 247 0 min -3,7 C -1,9 C 0,0 km/h (0 Bft)
19.12.2020 03:45 -2,0 C 5,8 C -2,4 C -1,9 C -1,9 C 0,1 C 88 % 93 % 1023,8 hPa 0,0 l/m 0,0 km/h (0 Bft) W-SW 247 0 min -3,7 C -1,9 C 0,0 km/h (0 Bft)
19.12.2020 03:50 -1,9 C 5,8 C -2,4 C -1,9 C -1,9 C 0,0 C 88 % 93 % 1023,4 hPa 0,0 l/m 0,0 km/h (0 Bft) W-SW 247 0 min -3,6 C -1,9 C 0,0 km/h (0 Bft)
19.12.2020 03:55 -2,1 C 5,7 C -2,4 C -2,0 C -2,0 C 0,1 C 88 % 93 % 1023,4 hPa 0,0 l/m 0,0 km/h (0 Bft) W-SW 247 0 min -3,8 C -2,0 C 0,0 km/h (0 Bft)
19.12.2020 04:00 -2,1 C 5,7 C -2,5 C -2,1 C -2,1 C 0,0 C 88 % 92 % 1023,4 hPa 0,0 l/m 0,0 km/h (0 Bft) W-SW 247 0 min -3,8 C -2,1 C 0,0 km/h (0 Bft)
19.12.2020 04:05 -2,1 C 5,7 C -2,5 C -2,1 C -2,2 C 0,0 C 88 % 93 % 1023,4 hPa 0,0 l/m 0,0 km/h (0 Bft) W-SW 247 0 min -3,8 C -2,2 C 0,0 km/h (0 Bft)
19.12.2020 04:11 -2,1 C 5,7 C -2,5 C -2,1 C -2,2 C 0,0 C 88 % 93 % 1023,4 hPa 0,0 l/m 0,0 km/h (0 Bft) N 0 0 min -3,8 C -2,2 C 0,0 km/h (0 Bft)
19.12.2020 04:26 -2,3 C 5,7 C -2,5 C -2,2 C -2,2 C 0,1 C 88 % 93 % 1023,4 hPa 0,0 l/m 0,0 km/h (0 Bft) W-SW 247 0 min -4,0 C -2,2 C 0,0 km/h (0 Bft)
19.12.2020 04:38 -2,4 C 5,7 C -2,5 C -2,4 C -2,5 C 0,0 C 88 % 93 % 1023,3 hPa 0,0 l/m 0,0 km/h (0 Bft) W-SW 247 0 min -4,1 C -2,5 C 0,0 km/h (0 Bft)
19.12.2020 04:40 -2,4 C 5,7 C -2,5 C -2,4 C -2,5 C 0,0 C 88 % 93 % 1023,3 hPa 0,0 l/m 0,0 km/h (0 Bft) W-SW 247 0 min -4,1 C -2,5 C 0,0 km/h (0 Bft)
19.12.2020 04:45 -2,4 C 5,7 C -2,6 C -2,3 C -2,3 C 0,1 C 88 % 93 % 1023,3 hPa 0,0 l/m 0,0 km/h (0 Bft) W-SW 247 0 min -4,1 C -2,3 C 0,0 km/h (0 Bft)
19.12.2020 04:50 -2,4 C 5,7 C -2,6 C -2,3 C -2,3 C 0,1 C 88 % 93 % 1022,9 hPa 0,0 l/m 0,0 km/h (0 Bft) W-SW 247 0 min -4,1 C -2,3 C 0,0 km/h (0 Bft)
19.12.2020 04:55 -2,4 C 5,6 C -2,6 C -2,2 C -2,2 C 0,2 C 88 % 93 % 1022,9 hPa 0,0 l/m 0,0 km/h (0 Bft) W-SW 247 0 min -4,1 C -2,2 C 0,0 km/h (0 Bft)
19.12.2020 05:00 -2,4 C 5,6 C -2,6 C -2,1 C -2,1 C 0,3 C 88 % 93 % 1022,9 hPa 0,0 l/m 0,0 km/h (0 Bft) W-SW 247 0 min -4,1 C -2,1 C 0,0 km/h (0 Bft)
19.12.2020 05:05 -2,4 C 5,6 C -2,6 C -2,1 C -2,1 C 0,3 C 88 % 93 % 1022,9 hPa 0,0 l/m 0,0 km/h (0 Bft) W-SW 247 0 min -4,1 C -2,1 C 0,0 km/h (0 Bft)
19.12.2020 05:10 -2,5 C 5,6 C -2,6 C -2,3 C -2,3 C 0,2 C 89 % 93 % 1022,8 hPa 0,0 l/m 0,0 km/h (0 Bft) W-SW 247 0 min -4,1 C -2,3 C 0,0 km/h (0 Bft)
19.12.2020 05:15 -2,5 C 5,6 C -2,6 C -2,4 C -2,4 C 0,1 C 88 % 93 % 1022,8 hPa 0,0 l/m 0,0 km/h (0 Bft) W-SW 247 0 min -4,2 C -2,4 C 0,0 km/h (0 Bft)
19.12.2020 05:20 -2,5 C 5,6 C -2,6 C -2,4 C -2,4 C 0,1 C 88 % 93 % 1022,8 hPa 0,0 l/m 0,0 km/h (0 Bft) W-SW 247 0 min -4,2 C -2,4 C 0,0 km/h (0 Bft)
19.12.2020 05:25 -2,5 C 5,6 C -2,7 C -2,3 C -2,3 C 0,2 C 89 % 93 % 1022,8 hPa 0,0 l/m 0,0 km/h (0 Bft) W-SW 247 0 min -4,1 C -2,3 C 0,0 km/h (0 Bft)
19.12.2020 05:30 -2,5 C 5,6 C -2,6 C -2,3 C -2,3 C 0,2 C 89 % 93 % 1023,1 hPa 0,0 l/m 0,0 km/h (0 Bft) W-SW 247 0 min -4,1 C -2,3 C 0,0 km/h (0 Bft)
19.12.2020 05:35 -2,5 C 5,6 C -2,6 C -2,4 C -2,4 C 0,1 C 89 % 93 % 1023,1 hPa 0,0 l/m 0,0 km/h (0 Bft) W-SW 247 0 min -4,1 C -2,4 C 0,0 km/h (0 Bft)
19.12.2020 05:40 -2,6 C 5,6 C -2,5 C -2,4 C -2,4 C 0,2 C 89 % 93 % 1023,1 hPa 0,0 l/m 0,0 km/h (0 Bft) W-SW 247 0 min -4,2 C -2,4 C 0,0 km/h (0 Bft)
19.12.2020 05:45 -2,5 C 5,6 C -2,7 C -2,4 C -2,4 C 0,1 C 89 % 93 % 1023,1 hPa 0,0 l/m 0,0 km/h (0 Bft) W-SW 247 0 min -4,1 C -2,4 C 0,0 km/h (0 Bft)
19.12.2020 05:50 -2,5 C 5,6 C -2,7 C -2,3 C -2,3 C 0,2 C 89 % 93 % 1023,1 hPa 0,0 l/m 0,0 km/h (0 Bft) W-SW 247 0 min -4,1 C -2,3 C 0,0 km/h (0 Bft)
19.12.2020 05:55 -2,5 C 5,6 C -2,8 C -2,2 C -2,2 C 0,3 C 89 % 93 % 1023,1 hPa 0,0 l/m 0,0 km/h (0 Bft) W-SW 247 0 min -4,1 C -2,2 C 0,0 km/h (0 Bft)
19.12.2020 06:00 -2,5 C 5,6 C -2,7 C -2,1 C -2,1 C 0,4 C 89 % 93 % 1023,1 hPa 0,0 l/m 0,0 km/h (0 Bft) W-SW 247 0 min -4,1 C -2,1 C 0,0 km/h (0 Bft)
19.12.2020 06:05 -2,6 C 5,5 C -2,7 C -2,0 C -2,0 C 0,6 C 89 % 93 % 1023,1 hPa 0,0 l/m 0,0 km/h (0 Bft) W-SW 247 0 min -4,2 C -2,0 C 0,0 km/h (0 Bft)
19.12.2020 06:11 -2,5 C 5,5 C -2,7 C -1,9 C -1,9 C 0,6 C 89 % 93 % 1022,7 hPa 0,0 l/m 0,0 km/h (0 Bft) N 0 0 min -4,1 C -1,9 C 0,0 km/h (0 Bft)
19.12.2020 06:26 -2,5 C 5,5 C -2,7 C -2,1 C -2,1 C 0,4 C 89 % 93 % 1022,7 hPa 0,0 l/m 0,0 km/h (0 Bft) W-SW 247 0 min -4,1 C -2,1 C 0,0 km/h (0 Bft)
19.12.2020 06:38 -2,5 C 5,5 C -2,6 C -2,0 C -2,0 C 0,5 C 89 % 93 % 1022,9 hPa 0,0 l/m 0,0 km/h (0 Bft) W-SW 247 0 min -4,1 C -2,0 C 0,0 km/h (0 Bft)
19.12.2020 06:40 -2,5 C 5,5 C -2,6 C -2,0 C -2,0 C 0,5 C 89 % 93 % 1022,9 hPa 0,0 l/m 0,0 km/h (0 Bft) W-SW 247 0 min -4,1 C -2,0 C 0,0 km/h (0 Bft)
19.12.2020 06:45 -2,5 C 5,5 C -2,6 C -1,7 C -1,7 C 0,8 C 89 % 93 % 1022,9 hPa 0,0 l/m 0,0 km/h (0 Bft) W-SW 247 0 min -4,1 C -1,7 C 0,0 km/h (0 Bft)
19.12.2020 06:50 -2,5 C 5,5 C -2,3 C -1,5 C -1,5 C 1,0 C 89 % 93 % 1022,5 hPa 0,0 l/m 0,2 km/h (0 Bft) W-SW 247 0 min -4,1 C -1,5 C 0,0 km/h (0 Bft)
19.12.2020 06:55 -2,3 C 5,5 C -2,3 C -1,1 C -1,1 C 1,2 C 89 % 93 % 1022,5 hPa 0,0 l/m 0,2 km/h (0 Bft) W-SW 247 0 min -3,9 C -1,1 C 0,0 km/h (0 Bft)
19.12.2020 07:00 -2,3 C 5,5 C -2,3 C -1,1 C -1,1 C 1,2 C 89 % 93 % 1022,5 hPa 0,0 l/m 0,2 km/h (0 Bft) W-SW 247 0 min -3,9 C -1,1 C 0,0 km/h (0 Bft)
19.12.2020 07:05 -2,1 C 5,5 C -2,3 C -1,0 C -1,0 C 1,1 C 89 % 93 % 1022,5 hPa 0,0 l/m 0,0 km/h (0 Bft) W-SW 247 0 min -3,7 C -1,0 C 0,0 km/h (0 Bft)
19.12.2020 07:10 -2,1 C 5,5 C -2,4 C -1,1 C -1,1 C 1,0 C 89 % 93 % 1022,4 hPa 0,0 l/m 0,0 km/h (0 Bft) W-SW 247 0 min -3,7 C -1,1 C 0,0 km/h (0 Bft)
19.12.2020 07:15 -2,1 C 5,5 C -2,3 C -0,9 C -0,9 C 1,2 C 89 % 93 % 1022,4 hPa 0,0 l/m 0,0 km/h (0 Bft) W-SW 247 0 min -3,7 C -0,9 C 0,0 km/h (0 Bft)
19.12.2020 07:20 -2,0 C 5,5 C -2,1 C -0,8 C -0,8 C 1,2 C 89 % 93 % 1022,4 hPa 0,0 l/m 0,2 km/h (0 Bft) W-SW 247 0 min -3,6 C -0,8 C 0,0 km/h (0 Bft)
19.12.2020 07:25 -1,9 C 5,5 C -2,0 C -0,9 C -0,9 C 1,0 C 89 % 93 % 1022,4 hPa 0,0 l/m 0,2 km/h (0 Bft) W-SW 247 0 min -3,5 C -0,9 C 2,4 km/h (1 Bft)
19.12.2020 07:30 -1,9 C 5,5 C -2,0 C -0,9 C -0,9 C 1,0 C 89 % 93 % 1022,4 hPa 0,0 l/m 0,0 km/h (0 Bft) W-SW 247 0 min -3,5 C -0,9 C 0,0 km/h (0 Bft)
19.12.2020 07:35 -1,9 C 5,4 C -1,9 C -1,0 C -1,0 C 0,9 C 88 % 93 % 1022,4 hPa 0,0 l/m 0,0 km/h (0 Bft) W-SW 247 0 min -3,6 C -1,0 C 0,0 km/h (0 Bft)
19.12.2020 07:40 -1,9 C 5,4 C -1,9 C -0,8 C -0,8 C 1,1 C 89 % 93 % 1022,4 hPa 0,0 l/m 0,0 km/h (0 Bft) W-SW 247 0 min -3,5 C -0,8 C 0,0 km/h (0 Bft)
19.12.2020 07:45 -1,7 C 5,4 C -2,0 C -0,7 C -0,7 C 1,0 C 89 % 93 % 1022,4 hPa 0,0 l/m 0,0 km/h (0 Bft) W-SW 247 0 min -3,3 C -0,7 C 0,0 km/h (0 Bft)
19.12.2020 07:50 -1,7 C 5,4 C -2,0 C -0,6 C -0,6 C 1,1 C 89 % 93 % 1022,4 hPa 0,0 l/m 0,0 km/h (0 Bft) W-SW 247 0 min -3,3 C -0,6 C 0,0 km/h (0 Bft)
19.12.2020 07:55 -1,7 C 5,4 C -1,9 C -0,6 C -0,6 C 1,1 C 89 % 93 % 1022,4 hPa 0,0 l/m 0,0 km/h (0 Bft) W-SW 247 0 min -3,3 C -0,6 C 0,0 km/h (0 Bft)
19.12.2020 08:00 -1,7 C 5,4 C -1,7 C -0,6 C -0,6 C 1,1 C 89 % 93 % 1022,4 hPa 0,0 l/m 0,0 km/h (0 Bft) W-SW 247 0 min -3,3 C -0,6 C 0,0 km/h (0 Bft)
19.12.2020 08:05 -1,6 C 5,4 C -1,5 C -0,6 C -0,6 C 1,0 C 89 % 93 % 1022,4 hPa 0,0 l/m 0,0 km/h (0 Bft) W-SW 247 0 min -3,2 C -0,6 C 0,0 km/h (0 Bft)
19.12.2020 08:11 -1,3 C 5,4 C -1,4 C -0,6 C -0,6 C 0,7 C 89 % 93 % 1022,6 hPa 0,0 l/m 0,0 km/h (0 Bft) N 0 0 min -2,9 C -0,6 C 0,0 km/h (0 Bft)
19.12.2020 08:26 -1,2 C 5,3 C -1,2 C -0,3 C -0,3 C 0,9 C 89 % 93 % 1022,6 hPa 0,0 l/m 0,2 km/h (0 Bft) S 180 15 min -2,8 C -0,3 C 0,0 km/h (0 Bft)
19.12.2020 08:38 -0,8 C 5,3 C -0,5 C 0,0 C 0,0 C 0,8 C 88 % 92 % 1022,8 hPa 0,0 l/m 0,3 km/h (0 Bft) O-NO 67 12 min -2,5 C 0,0 C 4,3 km/h (1 Bft)
19.12.2020 08:40 -0,8 C 5,3 C -0,5 C 0,0 C 0,0 C 0,8 C 88 % 92 % 1022,8 hPa 0,0 l/m 0,3 km/h (0 Bft) O-NO 67 2 min -2,5 C 0,0 C 0,0 km/h (0 Bft)
19.12.2020 08:45 -0,7 C 5,3 C -0,5 C 0,1 C 0,1 C 0,8 C 89 % 93 % 1022,8 hPa 0,0 l/m 0,0 km/h (0 Bft) O-NO 67 5 min -2,3 C 0,1 C 0,0 km/h (0 Bft)
19.12.2020 08:50 -0,5 C 5,3 C -0,3 C 0,2 C 0,2 C 0,7 C 88 % 92 % 1023,1 hPa 0,0 l/m 0,2 km/h (0 Bft) NO 45 5 min -2,2 C 0,2 C 1,8 km/h (1 Bft)
19.12.2020 08:55 -0,5 C 5,3 C -0,2 C 0,3 C 0,3 C 0,8 C 88 % 92 % 1023,1 hPa 0,0 l/m 0,2 km/h (0 Bft) O-NO 67 5 min -2,2 C 0,3 C 0,0 km/h (0 Bft)
19.12.2020 09:00 -0,3 C 5,3 C -0,1 C 0,5 C 0,5 C 0,8 C 89 % 93 % 1023,1 hPa 0,0 l/m 0,3 km/h (0 Bft) N-NO 22 0 min -1,9 C 0,5 C 1,9 km/h (1 Bft)
19.12.2020 09:05 -0,1 C 5,2 C 0,3 C 0,7 C 0,7 C 0,8 C 89 % 93 % 1023,1 hPa 0,0 l/m 0,3 km/h (0 Bft) S-SO 157 0 min -1,7 C 0,7 C 0,0 km/h (0 Bft)
19.12.2020 09:10 -0,1 C 5,2 C 0,2 C 0,7 C 0,7 C 0,8 C 89 % 93 % 1023,1 hPa 0,0 l/m 0,2 km/h (0 Bft) S 180 0 min -1,7 C 0,7 C 0,0 km/h (0 Bft)
19.12.2020 09:15 -0,1 C 5,2 C 0,2 C 0,7 C 0,7 C 0,8 C 89 % 93 % 1023,1 hPa 0,0 l/m 0,0 km/h (0 Bft) S 180 0 min -1,7 C 0,7 C 0,0 km/h (0 Bft)
19.12.2020 09:20 -0,1 C 5,2 C 0,3 C 0,8 C 0,8 C 0,9 C 89 % 93 % 1023,1 hPa 0,0 l/m 0,2 km/h (0 Bft) S 180 0 min -1,7 C 0,8 C 0,0 km/h (0 Bft)
19.12.2020 09:25 -0,1 C 5,2 C 0,2 C 0,9 C 0,9 C 1,0 C 89 % 93 % 1023,1 hPa 0,0 l/m 0,3 km/h (0 Bft) S-SO 157 0 min -1,7 C 0,9 C 0,0 km/h (0 Bft)
19.12.2020 09:30 -0,1 C 5,2 C 0,2 C 0,9 C 0,9 C 1,0 C 89 % 93 % 1022,8 hPa 0,0 l/m 0,3 km/h (0 Bft) S-SO 157 0 min -1,7 C 0,9 C 0,0 km/h (0 Bft)
19.12.2020 09:35 0,1 C 5,2 C 0,5 C 1,1 C 1,1 C 1,0 C 89 % 93 % 1022,8 hPa 0,0 l/m 0,2 km/h (0 Bft) S-SO 157 0 min -1,5 C 1,1 C 1,8 km/h (1 Bft)
19.12.2020 09:40 0,1 C 5,2 C 0,6 C 1,2 C 1,2 C 1,1 C 89 % 93 % 1022,8 hPa 0,0 l/m 0,2 km/h (0 Bft) S-SO 157 0 min -1,5 C 1,2 C 1,6 km/h (1 Bft)
19.12.2020 09:45 0,3 C 5,2 C 0,7 C 1,4 C 1,4 C 1,1 C 89 % 93 % 1022,8 hPa 0,0 l/m 0,3 km/h (0 Bft) S 180 0 min -1,3 C 1,4 C 0,0 km/h (0 Bft)
19.12.2020 09:50 0,4 C 5,2 C 0,7 C 1,4 C 1,4 C 1,0 C 89 % 93 % 1022,8 hPa 0,0 l/m 0,2 km/h (0 Bft) S-SO 157 0 min -1,2 C 1,4 C 0,0 km/h (0 Bft)
19.12.2020 09:55 0,5 C 5,2 C 0,8 C 1,7 C 1,7 C 1,2 C 89 % 93 % 1022,8 hPa 0,0 l/m 0,3 km/h (0 Bft) SW 225 0 min -1,1 C 1,7 C 0,0 km/h (0 Bft)
19.12.2020 10:00 0,7 C 5,2 C 0,8 C 1,8 C 1,8 C 1,1 C 89 % 93 % 1022,8 hPa 0,0 l/m 0,5 km/h (0 Bft) S-SW 202 0 min -0,9 C 1,8 C 0,0 km/h (0 Bft)
19.12.2020 10:05 0,8 C 5,2 C 1,0 C 2,0 C 2,0 C 1,2 C 89 % 93 % 1022,8 hPa 0,0 l/m 0,3 km/h (0 Bft) SW 225 0 min -0,8 C 2,0 C 1,8 km/h (1 Bft)
19.12.2020 10:11 0,9 C 5,2 C 1,0 C 2,1 C 2,1 C 1,2 C 89 % 93 % 1022,5 hPa 0,0 l/m 0,3 km/h (0 Bft) N 0 0 min -0,7 C 2,1 C 0,0 km/h (0 Bft)
19.12.2020 10:26 1,2 C 5,2 C 1,4 C 2,9 C 2,9 C 1,7 C 89 % 93 % 1022,5 hPa 0,0 l/m 0,3 km/h (0 Bft) W-SW 247 0 min -0,4 C 2,9 C 0,0 km/h (0 Bft)
19.12.2020 10:37 1,7 C 5,2 C 1,7 C 3,4 C 3,4 C 1,7 C 88 % 93 % 1022,6 hPa 0,0 l/m 0,6 km/h (0 Bft) W-SW 247 0 min -0,1 C 3,4 C 0,0 km/h (0 Bft)
19.12.2020 10:40 1,9 C 5,2 C 1,9 C 3,6 C 3,6 C 1,7 C 88 % 93 % 1022,6 hPa 0,0 l/m 0,5 km/h (0 Bft) W-SW 247 0 min 0,1 C 3,6 C 0,0 km/h (0 Bft)
19.12.2020 10:45 2,0 C 5,2 C 2,0 C 4,5 C 4,5 C 2,5 C 88 % 93 % 1022,6 hPa 0,0 l/m 0,2 km/h (0 Bft) W 270 0 min 0,2 C 4,5 C 0,0 km/h (0 Bft)
19.12.2020 10:50 2,1 C 5,2 C 2,2 C 4,5 C 4,5 C 2,4 C 88 % 93 % 1022,6 hPa 0,0 l/m 0,3 km/h (0 Bft) SO 135 0 min 0,3 C 4,5 C 0,0 km/h (0 Bft)
19.12.2020 10:55 2,3 C 5,1 C 2,4 C 4,2 C 4,2 C 1,9 C 89 % 93 % 1022,6 hPa 0,0 l/m 0,2 km/h (0 Bft) O-NO 67 0 min 0,7 C 4,2 C 0,0 km/h (0 Bft)
19.12.2020 11:00 2,4 C 5,0 C 2,6 C 4,3 C 4,3 C 1,9 C 89 % 93 % 1022,6 hPa 0,0 l/m 0,0 km/h (0 Bft) O-SO 112 0 min 0,8 C 4,3 C 0,0 km/h (0 Bft)
19.12.2020 11:05 2,6 C 5,1 C 2,8 C 4,6 C 4,6 C 2,0 C 89 % 93 % 1022,6 hPa 0,0 l/m 0,0 km/h (0 Bft) N-NO 22 0 min 1,0 C 4,6 C 1,9 km/h (1 Bft)
19.12.2020 11:10 2,8 C 5,1 C 2,9 C 5,6 C 5,6 C 2,8 C 89 % 93 % 1022,4 hPa 0,0 l/m 0,2 km/h (0 Bft) N-NO 22 0 min 1,2 C 5,6 C 0,0 km/h (0 Bft)
19.12.2020 11:15 2,9 C 5,1 C 3,1 C 7,2 C 7,2 C 4,3 C 89 % 93 % 1022,4 hPa 0,0 l/m 0,2 km/h (0 Bft) N-NW 337 5 min 1,3 C 7,2 C 0,0 km/h (0 Bft)
19.12.2020 11:20 3,3 C 5,0 C 3,1 C 8,6 C 8,6 C 5,3 C 88 % 93 % 1022,4 hPa 0,0 l/m 0,2 km/h (0 Bft) S-SO 157 5 min 1,5 C 8,6 C 0,0 km/h (0 Bft)
19.12.2020 11:25 3,5 C 5,0 C 3,6 C 10,0 C 10,0 C 6,5 C 88 % 93 % 1022,4 hPa 0,0 l/m 0,3 km/h (0 Bft) O 90 5 min 1,7 C 10,0 C 0,0 km/h (0 Bft)
19.12.2020 11:30 3,8 C 5,0 C 3,9 C 10,6 C 10,6 C 6,8 C 88 % 92 % 1022,6 hPa 0,0 l/m 0,5 km/h (0 Bft) S 180 5 min 2,0 C 10,6 C 1,8 km/h (1 Bft)
19.12.2020 11:35 4,2 C 5,0 C 4,1 C 10,6 C 10,6 C 6,4 C 88 % 92 % 1022,6 hPa 0,0 l/m 0,6 km/h (0 Bft) NO 45 5 min 2,4 C 10,6 C 1,8 km/h (1 Bft)
19.12.2020 11:40 4,6 C 5,0 C 4,3 C 9,5 C 9,5 C 4,9 C 88 % 92 % 1022,6 hPa 0,0 l/m 1,0 km/h (0 Bft) SO 135 5 min 2,8 C 9,5 C 0,0 km/h (0 Bft)
19.12.2020 11:45 5,1 C 5,0 C 4,6 C 10,3 C 10,3 C 5,2 C 88 % 92 % 1022,6 hPa 0,0 l/m 1,6 km/h (1 Bft) S 180 5 min 3,3 C 10,3 C 5,1 km/h (1 Bft)
19.12.2020 11:50 5,5 C 5,0 C 4,7 C 10,4 C 10,4 C 4,9 C 88 % 91 % 1022,4 hPa 0,0 l/m 1,4 km/h (1 Bft) SO 135 5 min 3,7 C 10,4 C 2,3 km/h (1 Bft)
19.12.2020 11:55 5,9 C 5,0 C 5,0 C 10,2 C 10,2 C 4,3 C 88 % 91 % 1022,4 hPa 0,0 l/m 0,8 km/h (0 Bft) N-NO 22 5 min 4,1 C 10,2 C 0,0 km/h (0 Bft)
19.12.2020 12:00 6,0 C 5,1 C 5,0 C 10,1 C 10,1 C 4,1 C 87 % 91 % 1022,4 hPa 0,0 l/m 0,3 km/h (0 Bft) O-NO 67 5 min 4,0 C 10,1 C 1,6 km/h (1 Bft)
19.12.2020 12:05 6,2 C 5,1 C 5,1 C 10,2 C 10,2 C 4,0 C 87 % 91 % 1022,4 hPa 0,0 l/m 0,2 km/h (0 Bft) O-SO 112 5 min 4,2 C 10,2 C 0,0 km/h (0 Bft)
19.12.2020 12:11 6,4 C 5,1 C 5,1 C 10,3 C 10,3 C 3,9 C 87 % 91 % 1022,4 hPa 0,0 l/m 0,0 km/h (0 Bft) N 0 6 min 4,4 C 10,3 C 0,0 km/h (0 Bft)
19.12.2020 12:27 6,7 C 5,0 C 5,5 C 10,2 C 10,2 C 3,5 C 85 % 90 % 1022,4 hPa 0,0 l/m 0,8 km/h (0 Bft) SW 225 16 min 4,4 C 10,2 C 5,3 km/h (1 Bft)
19.12.2020 12:38 7,1 C 5,0 C 5,7 C 9,2 C 9,2 C 2,1 C 84 % 89 % 1022,7 hPa 0,0 l/m 2,7 km/h (1 Bft) SW 225 0 min 4,6 C 9,2 C 3,2 km/h (1 Bft)
19.12.2020 12:40 7,1 C 5,0 C 5,7 C 9,2 C 9,2 C 2,1 C 84 % 89 % 1022,7 hPa 0,0 l/m 2,7 km/h (1 Bft) SW 225 0 min 4,6 C 9,2 C 3,2 km/h (1 Bft)
19.12.2020 12:45 7,1 C 5,0 C 5,7 C 8,9 C 8,9 C 1,8 C 84 % 89 % 1022,7 hPa 0,0 l/m 2,9 km/h (1 Bft) W-SW 247 0 min 4,6 C 8,9 C 2,9 km/h (1 Bft)
19.12.2020 12:50 7,1 C 5,0 C 5,6 C 8,7 C 8,7 C 1,6 C 83 % 89 % 1022,7 hPa 0,0 l/m 2,9 km/h (1 Bft) SW 225 0 min 4,4 C 8,7 C 3,2 km/h (1 Bft)
19.12.2020 12:55 7,2 C 5,0 C 5,7 C 9,1 C 9,1 C 1,9 C 82 % 89 % 1022,7 hPa 0,0 l/m 1,9 km/h (1 Bft) NW 315 0 min 4,3 C 9,1 C 0,0 km/h (0 Bft)
19.12.2020 13:00 7,2 C 5,2 C 5,7 C 9,7 C 9,7 C 2,5 C 82 % 89 % 1022,7 hPa 0,0 l/m 1,4 km/h (1 Bft) SW 225 0 min 4,3 C 9,7 C 1,8 km/h (1 Bft)
19.12.2020 13:05 7,2 C 5,2 C 5,6 C 10,0 C 10,0 C 2,8 C 81 % 89 % 1022,7 hPa 0,0 l/m 0,8 km/h (0 Bft) S 180 0 min 4,2 C 10,0 C 0,0 km/h (0 Bft)
19.12.2020 13:10 7,3 C 5,1 C 5,7 C 9,9 C 9,9 C 2,6 C 81 % 89 % 1022,6 hPa 0,0 l/m 0,3 km/h (0 Bft) S-SO 157 0 min 4,3 C 9,9 C 0,0 km/h (0 Bft)
19.12.2020 13:15 7,6 C 5,1 C 5,9 C 9,9 C 9,9 C 2,3 C 81 % 89 % 1022,6 hPa 0,0 l/m 1,0 km/h (0 Bft) S 180 0 min 4,6 C 9,9 C 3,9 km/h (1 Bft)
19.12.2020 13:20 7,7 C 5,1 C 5,9 C 9,9 C 9,9 C 2,2 C 80 % 88 % 1022,6 hPa 0,0 l/m 1,3 km/h (1 Bft) N-NO 22 0 min 4,5 C 9,9 C 0,0 km/h (0 Bft)
19.12.2020 13:25 7,9 C 5,1 C 6,0 C 10,4 C 10,4 C 2,5 C 80 % 88 % 1022,6 hPa 0,0 l/m 0,8 km/h (0 Bft) N-NO 22 0 min 4,7 C 10,4 C 0,0 km/h (0 Bft)
19.12.2020 13:30 7,9 C 5,2 C 6,1 C 10,4 C 10,4 C 2,5 C 80 % 88 % 1021,9 hPa 0,0 l/m 0,0 km/h (0 Bft) NO 45 0 min 4,7 C 10,4 C 0,0 km/h (0 Bft)
19.12.2020 13:35 7,9 C 5,2 C 6,2 C 10,9 C 10,9 C 3,0 C 80 % 87 % 1021,9 hPa 0,0 l/m 0,0 km/h (0 Bft) W-SW 247 0 min 4,7 C 10,9 C 0,0 km/h (0 Bft)
19.12.2020 13:40 8,1 C 5,2 C 6,3 C 11,0 C 11,0 C 2,9 C 80 % 87 % 1021,9 hPa 0,0 l/m 0,2 km/h (0 Bft) SW 225 0 min 4,9 C 11,0 C 0,0 km/h (0 Bft)
19.12.2020 13:45 8,4 C 5,2 C 6,4 C 10,9 C 10,9 C 2,5 C 79 % 87 % 1021,9 hPa 0,0 l/m 0,0 km/h (0 Bft) NO 45 0 min 5,0 C 10,9 C 0,0 km/h (0 Bft)
19.12.2020 13:50 8,5 C 5,2 C 6,5 C 10,6 C 10,6 C 2,1 C 78 % 88 % 1021,8 hPa 0,0 l/m 0,0 km/h (0 Bft) NO 45 0 min 4,9 C 10,6 C 0,0 km/h (0 Bft)
19.12.2020 13:55 8,5 C 5,2 C 6,7 C 10,9 C 10,9 C 2,4 C 78 % 87 % 1021,8 hPa 0,0 l/m 0,2 km/h (0 Bft) W-NW 292 0 min 4,9 C 10,9 C 0,0 km/h (0 Bft)
19.12.2020 14:00 8,4 C 5,3 C 6,9 C 11,5 C 11,5 C 3,1 C 77 % 87 % 1021,8 hPa 0,0 l/m 0,2 km/h (0 Bft) SO 135 0 min 4,6 C 11,5 C 0,0 km/h (0 Bft)
19.12.2020 14:05 8,7 C 5,3 C 6,9 C 11,9 C 11,9 C 3,2 C 77 % 86 % 1021,8 hPa 0,0 l/m 0,3 km/h (0 Bft) O-NO 67 0 min 4,9 C 11,9 C 6,0 km/h (2 Bft)
19.12.2020 14:11 8,7 C 5,3 C 7,0 C 11,7 C 11,7 C 3,0 C 77 % 86 % 1021,8 hPa 0,0 l/m 0,6 km/h (0 Bft) N 0 0 min 4,9 C 11,7 C 3,4 km/h (1 Bft)
19.12.2020 14:26 8,5 C 5,4 C 6,8 C 11,9 C 11,9 C 3,4 C 75 % 85 % 1021,8 hPa 0,0 l/m 0,2 km/h (0 Bft) N-NO 22 15 min 4,3 C 11,9 C 0,0 km/h (0 Bft)
19.12.2020 14:37 8,5 C 5,4 C 7,1 C 11,6 C 11,6 C 3,1 C 75 % 84 % 1021,6 hPa 0,0 l/m 0,0 km/h (0 Bft) NO 45 0 min 4,3 C 11,6 C 0,0 km/h (0 Bft)
19.12.2020 14:38 8,5 C 5,4 C 7,1 C 11,6 C 11,6 C 3,1 C 75 % 84 % 1021,6 hPa 0,0 l/m 0,0 km/h (0 Bft) NO 45 0 min 4,3 C 11,6 C 0,0 km/h (0 Bft)
19.12.2020 14:40 8,5 C 5,4 C 7,1 C 11,6 C 11,6 C 3,1 C 75 % 84 % 1021,6 hPa 0,0 l/m 0,0 km/h (0 Bft) NO 45 0 min 4,3 C 11,6 C 0,0 km/h (0 Bft)
19.12.2020 14:45 8,6 C 5,4 C 6,8 C 11,4 C 11,4 C 2,8 C 75 % 84 % 1021,6 hPa 0,0 l/m 0,0 km/h (0 Bft) O-NO 67 0 min 4,4 C 11,4 C 0,0 km/h (0 Bft)
19.12.2020 14:50 8,7 C 5,4 C 6,8 C 11,4 C 11,4 C 2,7 C 75 % 84 % 1021,6 hPa 0,0 l/m 0,0 km/h (0 Bft) NO 45 0 min 4,5 C 11,4 C 0,0 km/h (0 Bft)
19.12.2020 14:55 8,5 C 5,5 C 6,7 C 11,0 C 11,0 C 2,5 C 75 % 83 % 1021,6 hPa 0,0 l/m 0,0 km/h (0 Bft) O 90 0 min 4,3 C 11,0 C 0,0 km/h (0 Bft)
19.12.2020 15:00 8,5 C 5,5 C 6,6 C 10,4 C 10,4 C 1,9 C 75 % 83 % 1021,6 hPa 0,0 l/m 0,2 km/h (0 Bft) S-SO 157 0 min 4,3 C 10,4 C 0,0 km/h (0 Bft)
19.12.2020 15:05 8,5 C 5,4 C 6,5 C 9,7 C 9,7 C 1,2 C 75 % 83 % 1021,6 hPa 0,0 l/m 0,2 km/h (0 Bft) N-NO 22 0 min 4,3 C 9,7 C 0,0 km/h (0 Bft)
19.12.2020 15:10 8,4 C 5,4 C 6,5 C 9,3 C 9,3 C 0,9 C 74 % 83 % 1021,6 hPa 0,0 l/m 0,2 km/h (0 Bft) O-NO 67 0 min 4,0 C 9,3 C 0,0 km/h (0 Bft)
19.12.2020 15:15 8,4 C 5,5 C 6,5 C 8,9 C 8,9 C 0,5 C 74 % 83 % 1021,6 hPa 0,0 l/m 0,3 km/h (0 Bft) N-NW 337 0 min 4,0 C 8,9 C 0,0 km/h (0 Bft)
19.12.2020 15:20 8,3 C 5,6 C 6,3 C 8,5 C 8,5 C 0,2 C 74 % 83 % 1021,6 hPa 0,0 l/m 0,2 km/h (0 Bft) N-NO 22 0 min 3,9 C 8,5 C 0,0 km/h (0 Bft)
19.12.2020 15:25 8,2 C 5,6 C 6,3 C 8,3 C 8,3 C 0,1 C 74 % 84 % 1021,6 hPa 0,0 l/m 0,5 km/h (0 Bft) O-NO 67 0 min 3,8 C 8,3 C 0,0 km/h (0 Bft)
19.12.2020 15:30 8,3 C 5,6 C 6,2 C 8,3 C 8,2 C 0,0 C 74 % 83 % 1021,6 hPa 0,0 l/m 0,5 km/h (0 Bft) NO 45 0 min 3,9 C 8,2 C 0,0 km/h (0 Bft)
19.12.2020 15:35 8,2 C 5,6 C 6,1 C 8,1 C 7,9 C 0,0 C 74 % 83 % 1021,6 hPa 0,0 l/m 0,0 km/h (0 Bft) W 270 0 min 3,8 C 7,9 C 0,0 km/h (0 Bft)
19.12.2020 15:40 8,1 C 5,6 C 5,9 C 8,0 C 7,8 C 0,0 C 74 % 83 % 1021,6 hPa 0,0 l/m 0,3 km/h (0 Bft) NO 45 0 min 3,8 C 7,8 C 2,6 km/h (1 Bft)
19.12.2020 15:45 8,0 C 5,6 C 5,9 C 7,9 C 7,7 C 0,0 C 74 % 84 % 1021,6 hPa 0,0 l/m 0,5 km/h (0 Bft) O-NO 67 0 min 3,7 C 7,7 C 0,0 km/h (0 Bft)
19.12.2020 15:50 8,0 C 5,6 C 5,8 C 7,8 C 7,5 C 0,0 C 74 % 84 % 1021,7 hPa 0,0 l/m 0,3 km/h (0 Bft) NO 45 0 min 3,7 C 7,5 C 0,0 km/h (0 Bft)
19.12.2020 15:55 7,9 C 5,6 C 5,8 C 7,7 C 7,3 C 0,0 C 74 % 83 % 1021,7 hPa 0,0 l/m 0,2 km/h (0 Bft) O-NO 67 0 min 3,6 C 7,3 C 0,0 km/h (0 Bft)
19.12.2020 16:00 7,9 C 5,6 C 5,6 C 7,7 C 7,3 C 0,0 C 74 % 84 % 1021,7 hPa 0,0 l/m 0,5 km/h (0 Bft) NO 45 0 min 3,6 C 7,3 C 1,8 km/h (1 Bft)
19.12.2020 16:05 7,6 C 5,6 C 5,4 C 7,4 C 7,0 C 0,0 C 74 % 84 % 1021,7 hPa 0,0 l/m 0,8 km/h (0 Bft) NO 45 0 min 3,3 C 7,0 C 2,3 km/h (1 Bft)
19.12.2020 16:11 7,6 C 5,6 C 5,3 C 7,4 C 7,0 C 0,0 C 74 % 84 % 1021,4 hPa 0,0 l/m 0,8 km/h (0 Bft) N 0 0 min 3,3 C 7,0 C 0,0 km/h (0 Bft)
19.12.2020 16:26 6,9 C 5,7 C 4,3 C 6,6 C 6,0 C 0,0 C 75 % 84 % 1021,4 hPa 0,0 l/m 0,0 km/h (0 Bft) NW 315 0 min 2,8 C 6,0 C 0,0 km/h (0 Bft)
19.12.2020 16:37 6,5 C 5,8 C 4,1 C 6,2 C 5,5 C 0,0 C 75 % 85 % 1021,9 hPa 0,0 l/m 0,0 km/h (0 Bft) NO 45 0 min 2,4 C 5,5 C 0,0 km/h (0 Bft)
19.12.2020 16:40 6,5 C 5,8 C 3,9 C 6,2 C 5,5 C 0,0 C 76 % 85 % 1021,9 hPa 0,0 l/m 0,5 km/h (0 Bft) NO 45 0 min 2,6 C 5,5 C 3,1 km/h (1 Bft)
19.12.2020 16:45 6,4 C 5,8 C 4,1 C 6,1 C 5,6 C 0,0 C 76 % 86 % 1021,9 hPa 0,0 l/m 1,3 km/h (1 Bft) O-NO 67 0 min 2,5 C 5,6 C 0,0 km/h (0 Bft)
19.12.2020 16:50 6,5 C 5,8 C 4,0 C 6,2 C 5,5 C 0,0 C 76 % 85 % 1021,9 hPa 0,0 l/m 1,3 km/h (1 Bft) NO 45 0 min 2,6 C 5,5 C 1,9 km/h (1 Bft)
19.12.2020 16:55 6,2 C 5,8 C 3,7 C 5,9 C 5,3 C 0,0 C 76 % 85 % 1021,9 hPa 0,0 l/m 0,5 km/h (0 Bft) NO 45 0 min 2,3 C 5,3 C 2,1 km/h (1 Bft)
19.12.2020 17:00 6,0 C 5,8 C 3,5 C 5,7 C 5,2 C 0,0 C 76 % 85 % 1021,9 hPa 0,0 l/m 0,3 km/h (0 Bft) NO 45 0 min 2,1 C 5,2 C 0,0 km/h (0 Bft)
19.12.2020 17:05 5,8 C 5,8 C 3,1 C 5,5 C 5,0 C 0,0 C 76 % 86 % 1021,9 hPa 0,0 l/m 0,2 km/h (0 Bft) NO 45 0 min 1,9 C 5,0 C 0,0 km/h (0 Bft)
19.12.2020 17:10 5,6 C 5,8 C 3,1 C 5,3 C 4,8 C 0,0 C 77 % 86 % 1021,8 hPa 0,0 l/m 0,0 km/h (0 Bft) NO 45 0 min 1,9 C 4,8 C 0,0 km/h (0 Bft)
19.12.2020 17:15 5,5 C 5,8 C 2,9 C 5,2 C 4,6 C 0,0 C 77 % 86 % 1021,8 hPa 0,0 l/m 0,0 km/h (0 Bft) NO 45 0 min 1,8 C 4,6 C 0,0 km/h (0 Bft)
19.12.2020 17:20 5,2 C 5,8 C 2,7 C 4,9 C 4,4 C 0,0 C 77 % 87 % 1021,8 hPa 0,0 l/m 0,0 km/h (0 Bft) NO 45 0 min 1,5 C 4,4 C 0,0 km/h (0 Bft)
19.12.2020 17:25 5,0 C 5,8 C 2,5 C 4,7 C 4,2 C 0,0 C 77 % 87 % 1021,8 hPa 0,0 l/m 0,0 km/h (0 Bft) NO 45 0 min 1,3 C 4,2 C 0,0 km/h (0 Bft)
19.12.2020 17:30 4,9 C 5,8 C 2,6 C 4,6 C 3,9 C 0,0 C 78 % 87 % 1022,0 hPa 0,0 l/m 0,0 km/h (0 Bft) NO 45 0 min 1,4 C 3,9 C 0,0 km/h (0 Bft)
19.12.2020 17:35 4,7 C 5,8 C 2,5 C 4,3 C 3,6 C 0,0 C 78 % 87 % 1022,0 hPa 0,0 l/m 0,0 km/h (0 Bft) NO 45 0 min 1,2 C 3,6 C 0,0 km/h (0 Bft)
19.12.2020 17:40 4,6 C 5,8 C 2,3 C 4,2 C 3,5 C 0,0 C 78 % 87 % 1022,0 hPa 0,0 l/m 0,0 km/h (0 Bft) NO 45 0 min 1,1 C 3,5 C 0,0 km/h (0 Bft)
19.12.2020 17:45 4,4 C 5,9 C 2,2 C 4,0 C 3,1 C 0,0 C 78 % 88 % 1022,0 hPa 0,0 l/m 0,0 km/h (0 Bft) NO 45 0 min 0,9 C 3,1 C 0,0 km/h (0 Bft)
19.12.2020 17:50 4,3 C 5,9 C 2,2 C 3,9 C 3,1 C 0,0 C 78 % 88 % 1022,3 hPa 0,0 l/m 0,0 km/h (0 Bft) NO 45 0 min 0,8 C 3,1 C 0,0 km/h (0 Bft)
19.12.2020 17:55 4,4 C 5,9 C 2,2 C 4,0 C 3,1 C 0,0 C 80 % 88 % 1022,3 hPa 0,0 l/m 0,2 km/h (0 Bft) W 270 0 min 1,3 C 3,1 C 0,0 km/h (0 Bft)
19.12.2020 18:00 4,3 C 5,9 C 2,2 C 3,9 C 3,0 C 0,0 C 80 % 88 % 1022,3 hPa 0,0 l/m 0,2 km/h (0 Bft) W 270 0 min 1,2 C 3,0 C 0,0 km/h (0 Bft)
19.12.2020 18:05 4,1 C 5,9 C 1,9 C 3,6 C 2,7 C 0,0 C 80 % 88 % 1022,3 hPa 0,0 l/m 0,0 km/h (0 Bft) S-SW 202 0 min 1,0 C 2,7 C 0,0 km/h (0 Bft)
19.12.2020 18:11 4,1 C 5,9 C 1,8 C 3,6 C 2,6 C 0,0 C 80 % 88 % 1022,3 hPa 0,0 l/m 0,0 km/h (0 Bft) N 0 0 min 1,0 C 2,6 C 0,0 km/h (0 Bft)
19.12.2020 18:26 3,7 C 5,8 C 1,6 C 3,4 C 2,7 C 0,0 C 80 % 88 % 1022,3 hPa 0,0 l/m 0,2 km/h (0 Bft) SW 225 0 min 0,6 C 2,7 C 0,0 km/h (0 Bft)
19.12.2020 18:27 3,7 C 5,8 C 1,6 C 3,4 C 2,7 C 0,0 C 80 % 88 % 1022,3 hPa 0,0 l/m 0,2 km/h (0 Bft) SW 225 0 min 0,6 C 2,7 C 0,0 km/h (0 Bft)
19.12.2020 18:30 3,6 C 5,8 C 1,6 C 3,3 C 2,6 C 0,0 C 80 % 89 % 1022,3 hPa 0,0 l/m 0,2 km/h (0 Bft) O-NO 67 0 min 0,5 C 2,6 C 0,0 km/h (0 Bft)
19.12.2020 18:35 3,6 C 5,9 C 1,6 C 3,2 C 2,5 C 0,0 C 81 % 89 % 1022,3 hPa 0,0 l/m 0,0 km/h (0 Bft) W 270 0 min 0,7 C 2,5 C 0,0 km/h (0 Bft)
19.12.2020 18:40 3,5 C 5,8 C 1,6 C 3,1 C 2,4 C 0,0 C 81 % 89 % 1022,3 hPa 0,0 l/m 0,0 km/h (0 Bft) W 270 0 min 0,6 C 2,4 C 0,0 km/h (0 Bft)
19.12.2020 18:45 3,5 C 5,8 C 1,6 C 3,1 C 2,3 C 0,0 C 81 % 89 % 1022,3 hPa 0,0 l/m 0,0 km/h (0 Bft) NO 45 0 min 0,6 C 2,3 C 0,0 km/h (0 Bft)
19.12.2020 18:50 3,3 C 5,8 C 1,5 C 3,0 C 2,3 C 0,0 C 81 % 89 % 1022,4 hPa 0,0 l/m 0,0 km/h (0 Bft) NO 45 0 min 0,4 C 2,3 C 0,0 km/h (0 Bft)
19.12.2020 18:55 3,3 C 5,8 C 1,4 C 3,0 C 2,4 C 0,0 C 81 % 89 % 1022,4 hPa 0,0 l/m 0,0 km/h (0 Bft) NO 45 0 min 0,4 C 2,4 C 0,0 km/h (0 Bft)
19.12.2020 19:00 3,2 C 5,9 C 1,4 C 2,9 C 2,3 C 0,0 C 81 % 89 % 1022,4 hPa 0,0 l/m 0,0 km/h (0 Bft) NO 45 0 min 0,3 C 2,3 C 0,0 km/h (0 Bft)
19.12.2020 19:05 3,1 C 5,9 C 1,3 C 2,7 C 2,0 C 0,0 C 81 % 89 % 1022,4 hPa 0,0 l/m 0,0 km/h (0 Bft) W-SW 247 0 min 0,2 C 2,0 C 1,9 km/h (1 Bft)
19.12.2020 19:10 3,1 C 5,8 C 1,3 C 2,7 C 2,0 C 0,0 C 81 % 89 % 1022,5 hPa 0,0 l/m 0,0 km/h (0 Bft) SO 135 0 min 0,2 C 2,0 C 0,0 km/h (0 Bft)
19.12.2020 19:15 2,9 C 5,8 C 1,2 C 2,5 C 1,8 C 0,0 C 82 % 89 % 1022,5 hPa 0,0 l/m 0,0 km/h (0 Bft) N-NW 337 0 min 0,1 C 1,8 C 1,8 km/h (1 Bft)
19.12.2020 19:20 2,8 C 5,8 C 1,2 C 2,5 C 1,8 C 0,0 C 82 % 89 % 1022,5 hPa 0,0 l/m 0,0 km/h (0 Bft) SO 135 0 min 0,0 C 1,8 C 0,0 km/h (0 Bft)
19.12.2020 19:25 3,0 C 5,8 C 1,1 C 2,7 C 2,0 C 0,0 C 82 % 89 % 1022,5 hPa 0,0 l/m 0,5 km/h (0 Bft) S 180 0 min 0,2 C 2,0 C 0,0 km/h (0 Bft)
19.12.2020 19:30 2,9 C 5,8 C 1,1 C 2,6 C 2,0 C 0,0 C 82 % 90 % 1023,1 hPa 0,0 l/m 0,5 km/h (0 Bft) W-SW 247 0 min 0,1 C 2,0 C 0,0 km/h (0 Bft)
19.12.2020 19:35 3,0 C 5,8 C 1,3 C 2,7 C 2,0 C 0,0 C 82 % 90 % 1023,1 hPa 0,0 l/m 0,5 km/h (0 Bft) O-SO 112 0 min 0,2 C 2,0 C 2,1 km/h (1 Bft)
19.12.2020 19:40 3,1 C 5,8 C 1,3 C 2,7 C 2,0 C 0,0 C 82 % 90 % 1023,1 hPa 0,0 l/m 0,5 km/h (0 Bft) O-NO 67 0 min 0,3 C 2,0 C 0,0 km/h (0 Bft)
19.12.2020 19:45 2,9 C 5,9 C 1,0 C 2,6 C 1,9 C 0,0 C 82 % 89 % 1023,1 hPa 0,0 l/m 0,2 km/h (0 Bft) S 180 0 min 0,1 C 1,9 C 0,0 km/h (0 Bft)
19.12.2020 19:50 2,8 C 5,9 C 0,9 C 2,4 C 1,7 C 0,0 C 82 % 89 % 1023,2 hPa 0,0 l/m 0,0 km/h (0 Bft) S 180 0 min 0,0 C 1,7 C 0,0 km/h (0 Bft)
19.12.2020 19:55 2,7 C 6,0 C 0,8 C 2,3 C 1,4 C 0,0 C 82 % 89 % 1023,2 hPa 0,0 l/m 0,0 km/h (0 Bft) S 180 0 min -0,1 C 1,4 C 0,0 km/h (0 Bft)
19.12.2020 20:00 2,5 C 6,0 C 0,6 C 2,1 C 1,4 C 0,0 C 82 % 89 % 1023,2 hPa 0,0 l/m 0,0 km/h (0 Bft) S 180 0 min -0,3 C 1,4 C 0,0 km/h (0 Bft)
19.12.2020 20:05 2,3 C 6,0 C 0,4 C 1,9 C 1,1 C 0,0 C 82 % 89 % 1023,2 hPa 0,0 l/m 0,0 km/h (0 Bft) S 180 0 min -0,4 C 1,1 C 0,0 km/h (0 Bft)
19.12.2020 20:10 2,3 C 6,0 C 0,3 C 1,8 C 0,9 C 0,0 C 82 % 89 % 1023,2 hPa 0,0 l/m 0,0 km/h (0 Bft) S 180 0 min -0,4 C 0,9 C 0,0 km/h (0 Bft)
19.12.2020 20:15 2,0 C 6,0 C 0,2 C 1,5 C 0,6 C 0,0 C 82 % 89 % 1023,2 hPa 0,0 l/m 0,0 km/h (0 Bft) S 180 0 min -0,7 C 0,6 C 0,0 km/h (0 Bft)
19.12.2020 20:20 1,9 C 6,0 C 0,1 C 1,4 C 0,4 C 0,0 C 82 % 90 % 1023,2 hPa 0,0 l/m 0,0 km/h (0 Bft) S 180 0 min -0,8 C 0,4 C 0,0 km/h (0 Bft)
19.12.2020 20:25 1,9 C 6,0 C 0,0 C 1,5 C 0,6 C 0,0 C 82 % 90 % 1023,2 hPa 0,0 l/m 0,0 km/h (0 Bft) O-NO 67 0 min -0,8 C 0,6 C 0,0 km/h (0 Bft)
19.12.2020 20:30 1,7 C 6,0 C -0,1 C 1,3 C 0,6 C 0,0 C 83 % 90 % 1023,8 hPa 0,0 l/m 0,3 km/h (0 Bft) O-NO 67 0 min -0,9 C 0,6 C 0,0 km/h (0 Bft)
19.12.2020 20:35 1,6 C 6,0 C -0,1 C 1,2 C 0,4 C 0,0 C 83 % 90 % 1023,8 hPa 0,0 l/m 0,5 km/h (0 Bft) SW 225 0 min -1,0 C 0,4 C 0,0 km/h (0 Bft)
19.12.2020 20:40 1,5 C 6,0 C -0,2 C 1,1 C 0,2 C 0,0 C 83 % 90 % 1023,8 hPa 0,0 l/m 0,2 km/h (0 Bft) SW 225 0 min -1,1 C 0,2 C 0,0 km/h (0 Bft)
19.12.2020 20:45 1,3 C 6,0 C -0,3 C 0,9 C 0,0 C 0,0 C 83 % 90 % 1023,8 hPa 0,0 l/m 0,0 km/h (0 Bft) SW 225 0 min -1,3 C 0,0 C 0,0 km/h (0 Bft)
19.12.2020 20:50 1,2 C 6,0 C -0,4 C 0,8 C -0,1 C 0,0 C 83 % 91 % 1023,4 hPa 0,0 l/m 0,0 km/h (0 Bft) SW 225 0 min -1,4 C -0,1 C 0,0 km/h (0 Bft)
19.12.2020 20:55 1,1 C 6,0 C -0,4 C 0,6 C -0,4 C 0,0 C 83 % 91 % 1023,4 hPa 0,0 l/m 0,6 km/h (0 Bft) W-SW 247 0 min -1,5 C -0,4 C 0,0 km/h (0 Bft)
19.12.2020 21:00 0,9 C 6,0 C -0,5 C 0,4 C -0,6 C 0,0 C 83 % 91 % 1023,4 hPa 0,0 l/m 1,0 km/h (0 Bft) W-SW 247 0 min -1,7 C -0,6 C 1,6 km/h (1 Bft)
19.12.2020 21:05 0,8 C 6,0 C -0,5 C 0,3 C -0,7 C 0,0 C 84 % 90 % 1023,4 hPa 0,0 l/m 0,3 km/h (0 Bft) W-SW 247 0 min -1,6 C -0,7 C 0,0 km/h (0 Bft)
19.12.2020 21:10 0,8 C 6,0 C -0,6 C 0,3 C -0,7 C 0,0 C 84 % 91 % 1023,6 hPa 0,0 l/m 0,2 km/h (0 Bft) W-SW 247 0 min -1,6 C -0,7 C 0,0 km/h (0 Bft)
19.12.2020 21:15 0,7 C 6,0 C -0,6 C 0,2 C -0,7 C 0,0 C 84 % 91 % 1023,6 hPa 0,0 l/m 0,3 km/h (0 Bft) W-SW 247 0 min -1,7 C -0,7 C 0,0 km/h (0 Bft)
19.12.2020 21:20 0,5 C 6,0 C -0,8 C 0,0 C -0,9 C 0,0 C 84 % 91 % 1023,6 hPa 0,0 l/m 0,3 km/h (0 Bft) W-SW 247 0 min -1,9 C -0,9 C 0,0 km/h (0 Bft)
19.12.2020 21:25 0,5 C 6,0 C -0,9 C 0,0 C -0,9 C 0,0 C 84 % 91 % 1023,6 hPa 0,0 l/m 0,2 km/h (0 Bft) W-SW 247 0 min -1,9 C -0,9 C 0,0 km/h (0 Bft)
19.12.2020 21:30 0,4 C 6,0 C -1,0 C -0,1 C -1,0 C 0,0 C 85 % 91 % 1023,6 hPa 0,0 l/m 0,2 km/h (0 Bft) W-SW 247 0 min -1,8 C -1,0 C 0,0 km/h (0 Bft)
19.12.2020 21:35 0,3 C 6,0 C -1,1 C -0,2 C -1,1 C 0,0 C 85 % 91 % 1023,6 hPa 0,0 l/m 0,0 km/h (0 Bft) W-SW 247 0 min -1,9 C -1,1 C 0,0 km/h (0 Bft)
19.12.2020 21:40 0,3 C 6,0 C -1,0 C -0,2 C -1,2 C 0,0 C 85 % 91 % 1023,6 hPa 0,0 l/m 0,0 km/h (0 Bft) W-SW 247 0 min -1,9 C -1,2 C 0,0 km/h (0 Bft)
19.12.2020 21:45 0,1 C 6,0 C -1,2 C -0,3 C -1,2 C 0,0 C 85 % 91 % 1023,6 hPa 0,0 l/m 0,0 km/h (0 Bft) W-SW 247 0 min -2,1 C -1,2 C 0,0 km/h (0 Bft)
19.12.2020 21:50 0,0 C 6,0 C -1,3 C -0,5 C -1,4 C 0,0 C 85 % 91 % 1023,6 hPa 0,0 l/m 0,0 km/h (0 Bft) W-SW 247 0 min -2,2 C -1,4 C 0,0 km/h (0 Bft)
19.12.2020 21:55 -0,1 C 6,0 C -1,3 C -0,6 C -1,6 C 0,0 C 85 % 91 % 1023,6 hPa 0,0 l/m 0,0 km/h (0 Bft) W-SW 247 0 min -2,3 C -1,6 C 0,0 km/h (0 Bft)
19.12.2020 22:00 -0,1 C 5,9 C -1,3 C -0,6 C -1,6 C 0,0 C 85 % 91 % 1023,6 hPa 0,0 l/m 0,0 km/h (0 Bft) W-SW 247 0 min -2,3 C -1,6 C 0,0 km/h (0 Bft)
19.12.2020 22:05 -0,3 C 5,9 C -1,5 C -0,7 C -1,6 C 0,0 C 85 % 91 % 1023,6 hPa 0,0 l/m 0,0 km/h (0 Bft) W-SW 247 0 min -2,5 C -1,6 C 0,0 km/h (0 Bft)
19.12.2020 22:10 -0,3 C 5,9 C -1,5 C -0,7 C -1,6 C 0,0 C 85 % 92 % 1023,5 hPa 0,0 l/m 0,2 km/h (0 Bft) W-SW 247 0 min -2,5 C -1,6 C 0,0 km/h (0 Bft)
19.12.2020 22:15 -0,3 C 5,9 C -1,5 C -0,7 C -1,4 C 0,0 C 86 % 92 % 1023,5 hPa 0,0 l/m 0,2 km/h (0 Bft) W-SW 247 0 min -2,3 C -1,4 C 0,0 km/h (0 Bft)
19.12.2020 22:20 -0,4 C 5,9 C -1,5 C -0,8 C -1,6 C 0,0 C 86 % 92 % 1023,5 hPa 0,0 l/m 0,0 km/h (0 Bft) W-SW 247 0 min -2,4 C -1,6 C 0,0 km/h (0 Bft)
19.12.2020 22:25 -0,5 C 5,9 C -1,6 C -0,9 C -1,7 C 0,0 C 86 % 91 % 1023,5 hPa 0,0 l/m 0,0 km/h (0 Bft) W-SW 247 0 min -2,5 C -1,7 C 0,0 km/h (0 Bft)
19.12.2020 22:30 -0,5 C 5,9 C -1,6 C -0,9 C -1,7 C 0,0 C 86 % 91 % 1023,5 hPa 0,0 l/m 0,8 km/h (0 Bft) O-NO 67 0 min -2,5 C -1,7 C 1,8 km/h (1 Bft)
19.12.2020 22:35 -0,5 C 5,9 C -1,6 C -0,8 C -1,5 C 0,0 C 86 % 92 % 1023,5 hPa 0,0 l/m 0,8 km/h (0 Bft) O-NO 67 0 min -2,5 C -1,5 C 0,0 km/h (0 Bft)
19.12.2020 22:40 -0,5 C 5,9 C -1,6 C -0,9 C -1,6 C 0,0 C 86 % 92 % 1023,5 hPa 0,0 l/m 0,2 km/h (0 Bft) O-NO 67 0 min -2,5 C -1,6 C 0,0 km/h (0 Bft)
19.12.2020 22:45 -0,5 C 5,9 C -1,5 C -0,9 C -1,6 C 0,0 C 86 % 92 % 1023,5 hPa 0,0 l/m 0,0 km/h (0 Bft) O-NO 67 0 min -2,5 C -1,6 C 0,0 km/h (0 Bft)
19.12.2020 22:50 -0,6 C 5,9 C -1,6 C -1,0 C -1,7 C 0,0 C 86 % 92 % 1023,4 hPa 0,0 l/m 0,0 km/h (0 Bft) O-NO 67 0 min -2,6 C -1,7 C 0,0 km/h (0 Bft)
19.12.2020 22:55 -0,6 C 5,9 C -1,6 C -0,9 C -1,5 C 0,0 C 86 % 92 % 1023,4 hPa 0,0 l/m 0,0 km/h (0 Bft) SO 135 0 min -2,6 C -1,5 C 0,0 km/h (0 Bft)
19.12.2020 23:00 -0,5 C 5,9 C -1,5 C -0,8 C -1,3 C 0,0 C 87 % 92 % 1023,4 hPa 0,0 l/m 0,0 km/h (0 Bft) O 90 0 min -2,4 C -1,3 C 0,0 km/h (0 Bft)
19.12.2020 23:05 -0,5 C 5,9 C -1,5 C -0,7 C -1,1 C 0,0 C 87 % 92 % 1023,4 hPa 0,0 l/m 0,0 km/h (0 Bft) NO 45 0 min -2,4 C -1,1 C 0,0 km/h (0 Bft)
19.12.2020 23:10 -0,4 C 5,8 C -1,3 C -0,6 C -0,9 C 0,0 C 87 % 92 % 1023,7 hPa 0,0 l/m 0,2 km/h (0 Bft) S-SW 202 0 min -2,3 C -0,9 C 1,8 km/h (1 Bft)
19.12.2020 23:15 -0,1 C 5,8 C -1,2 C -0,4 C -0,9 C 0,0 C 87 % 92 % 1023,7 hPa 0,0 l/m 0,2 km/h (0 Bft) S-SW 202 0 min -2,0 C -0,9 C 0,0 km/h (0 Bft)
19.12.2020 23:20 -0,1 C 5,8 C -1,2 C -0,3 C -0,8 C 0,0 C 87 % 92 % 1023,7 hPa 0,0 l/m 0,3 km/h (0 Bft) NW 315 0 min -2,0 C -0,8 C 1,8 km/h (1 Bft)
19.12.2020 23:25 0,1 C 5,8 C -0,8 C -0,1 C -0,5 C 0,0 C 88 % 92 % 1023,7 hPa 0,0 l/m 0,8 km/h (0 Bft) W-SW 247 0 min -1,6 C -0,5 C 3,7 km/h (1 Bft)
19.12.2020 23:30 0,2 C 5,8 C -0,7 C 0,0 C -0,3 C 0,0 C 88 % 92 % 1023,1 hPa 0,0 l/m 1,0 km/h (0 Bft) W 270 0 min -1,5 C -0,3 C 0,0 km/h (0 Bft)
19.12.2020 23:35 0,4 C 5,8 C -0,7 C 0,2 C -0,3 C 0,0 C 88 % 92 % 1023,1 hPa 0,0 l/m 1,0 km/h (0 Bft) W 270 0 min -1,3 C -0,3 C 1,8 km/h (1 Bft)
19.12.2020 23:40 0,5 C 5,8 C -0,6 C 0,3 C -0,1 C 0,0 C 88 % 92 % 1023,1 hPa 0,0 l/m 0,8 km/h (0 Bft) W 270 0 min -1,3 C -0,1 C 0,0 km/h (0 Bft)
19.12.2020 23:45 0,7 C 5,7 C -0,4 C 0,5 C 0,2 C 0,0 C 88 % 92 % 1023,1 hPa 0,0 l/m 1,1 km/h (1 Bft) SW 225 0 min -1,1 C 0,2 C 4,5 km/h (1 Bft)
19.12.2020 23:50 0,8 C 5,6 C -0,3 C 0,6 C 0,3 C 0,0 C 87 % 92 % 1023,2 hPa 0,0 l/m 1,6 km/h (1 Bft) SW 225 0 min -1,1 C 0,3 C 2,1 km/h (1 Bft)
19.12.2020 23:55 0,8 C 5,6 C -0,4 C 0,6 C 0,1 C 0,0 C 87 % 92 % 1023,2 hPa 0,0 l/m 1,3 km/h (1 Bft) W-SW 247 0 min -1,1 C 0,1 C 0,0 km/h (0 Bft)
_ Min-Zeit 05:40 11:00 05:55 04:38 04:38 00:00 15:10 14:55 16:11 - 00:00 - - - 05:15 04:38 00:00
Minimum _ -2,6 C 5,0 C -2,8 C -2,4 C -2,5 C 0,0 C 74 % 83 % 1021,4 hPa - 0,0 km/h (0 Bft) - - - -4,2 C -2,5 C 0,0 km/h (0 Bft)
_ Max-Zeit 14:05 00:00 14:37 14:05 14:05 11:30 05:10 00:00 00:00 00:00 12:45 - - 12:27 13:45 14:05 14:05
Maximum _ 8,7 C 6,2 C 7,1 C 11,9 C 11,9 C 6,8 C 89 % 93 % 1025,3 hPa 0,0 l/m 2,9 km/h
W-SW (1 Bft)
- - 16 min 5,0 C 11,9 C 6,0 km/h
O-NO (2 Bft)
Durchschnitt _ 1,7 C 5,6 C 0,7 C 2,3 C 2,1 C 0,8 C 85 % 91 % 1023,0 hPa #0,0 l/m 0,2 km/h (0 Bft) SW - #2:16 h -0,7 C 2,1 C 0,4 km/h (0 Bft)
2020 www.wetterstation-wechselburg.de